Time;durP1;ratioP1;P1;durP2;ratioP2;P2;SDS_P1;SDS_P2;PMS_P1;PMS_P2;Temp;Humidity;BMP_temperature;BMP_pressure;BME280_temperature;BME280_humidity;BME280_pressure;Samples;Min_cycle;Max_cycle;Signal;HPM_P1;HPM_P2
2021/12/23 00:01:16;;;;;;;20.30;11.82;;;-2.10;95.90;;;;;;4911109;29;20091;-65
2021/12/23 00:03:42;;;;;;;17.45;9.52;;;-2.00;95.90;;;;;;4918378;29;20494;-65
2021/12/23 00:06:08;;;;;;;20.38;11.73;;;-2.00;96.20;;;;;;4912713;29;20051;-65
2021/12/23 00:08:33;;;;;;;18.63;10.57;;;-2.00;95.90;;;;;;4931554;29;20043;-65
2021/12/23 00:10:59;;;;;;;20.58;10.63;;;-1.90;95.90;;;;;;4931581;29;20039;-65
2021/12/23 00:13:25;;;;;;;16.48;11.20;;;-1.90;95.80;;;;;;4932008;29;20134;-65
2021/12/23 00:18:44;;;;;;;21.20;12.15;;;-1.90;95.80;;;;;;4931724;29;20056;-65
2021/12/23 00:23:58;;;;;;;19.15;11.10;;;-1.90;95.90;;;;;;4914269;29;20067;-65
2021/12/23 00:26:27;;;;;;;22.05;11.60;;;-1.90;95.80;;;;;;4926259;29;20044;-65
2021/12/23 00:28:53;;;;;;;21.92;11.38;;;-1.80;95.80;;;;;;4914216;29;20187;-65
2021/12/23 00:31:19;;;;;;;20.10;11.93;;;-1.90;95.80;;;;;;4930604;29;20040;-65
2021/12/23 00:33:45;;;;;;;20.95;11.43;;;-1.80;95.70;;;;;;4913634;29;20060;-65
2021/12/23 00:36:12;;;;;;;17.50;11.02;;;-1.80;95.70;;;;;;4930283;29;20047;-65
2021/12/23 00:38:47;;;;;;;21.73;10.50;;;-1.80;95.70;;;;;;4931509;29;20044;-65
2021/12/23 00:41:14;;;;;;;18.20;10.52;;;-1.80;95.70;;;;;;4931692;29;20061;-65
2021/12/23 00:43:40;;;;;;;21.08;11.77;;;-1.80;95.70;;;;;;4931617;29;20134;-65
2021/12/23 00:46:11;;;;;;;21.90;12.25;;;-1.80;95.70;;;;;;4929718;29;20062;-65
2021/12/23 00:48:39;;;;;;;20.35;10.77;;;-1.80;95.70;;;;;;4917971;29;20483;-65
2021/12/23 00:51:06;;;;;;;16.70;10.73;;;-1.80;96.10;;;;;;4931026;29;20110;-65
2021/12/23 00:53:38;;;;;;;24.05;11.55;;;-1.70;95.70;;;;;;4923196;29;20406;-65
2021/12/23 00:56:05;;;;;;;17.38;11.13;;;-1.70;95.60;;;;;;4902962;29;20153;-65
2021/12/23 00:58:31;;;;;;;18.73;10.20;;;-1.70;95.70;;;;;;4912239;29;20094;-65
2021/12/23 01:01:00;;;;;;;19.98;11.82;;;-1.70;95.70;;;;;;4904600;29;21681;-65
2021/12/23 01:03:26;;;;;;;18.60;11.77;;;-1.70;95.70;;;;;;4936204;29;20086;-65
2021/12/23 01:05:53;;;;;;;17.55;11.38;;;-1.70;95.80;;;;;;4940626;29;20036;-65
2021/12/23 01:08:19;;;;;;;20.10;10.95;;;-1.70;95.80;;;;;;4944379;29;20051;-65
2021/12/23 01:10:52;;;;;;;20.50;11.90;;;-1.70;95.80;;;;;;4918967;29;20062;-65
2021/12/23 01:13:19;;;;;;;18.70;11.68;;;-1.70;95.90;;;;;;4917477;29;20500;-65
2021/12/23 01:16:07;;;;;;;18.48;11.30;;;-1.70;95.80;;;;;;4927425;29;21150;-65
2021/12/23 01:18:43;;;;;;;21.40;11.95;;;-1.70;95.90;;;;;;4919975;29;20058;-65
2021/12/23 01:21:16;;;;;;;15.32;9.93;;;-1.70;95.90;;;;;;4945732;29;20555;-65
2021/12/23 01:23:45;;;;;;;22.35;10.38;;;-1.70;95.80;;;;;;4949820;29;20047;-65
2021/12/23 01:26:13;;;;;;;17.90;10.40;;;-1.60;95.90;;;;;;4930082;29;20048;-65
2021/12/23 01:28:39;;;;;;;21.25;10.88;;;-1.60;95.80;;;;;;4913860;29;20122;-65
2021/12/23 01:31:05;;;;;;;22.20;12.27;;;-1.60;95.70;;;;;;4940337;29;20614;-65
2021/12/23 01:33:31;;;;;;;17.95;11.30;;;-1.60;95.80;;;;;;4949019;29;20063;-65
2021/12/23 01:35:57;;;;;;;22.98;13.40;;;-1.60;95.80;;;;;;4938963;29;20563;-65
2021/12/23 01:38:22;;;;;;;20.58;11.93;;;-1.60;95.90;;;;;;4915890;29;20393;-65
2021/12/23 01:40:51;;;;;;;22.88;13.13;;;-1.50;95.90;;;;;;4949321;29;20418;-65
2021/12/23 01:43:20;;;;;;;19.63;11.48;;;-1.50;95.90;;;;;;4911493;29;20044;-65
2021/12/23 01:45:48;;;;;;;19.13;11.85;;;-1.50;95.90;;;;;;4932089;29;20179;-65
2021/12/23 01:48:15;;;;;;;20.88;12.02;;;-1.50;95.90;;;;;;4922832;29;20044;-65
2021/12/23 01:50:41;;;;;;;19.25;11.80;;;-1.50;95.90;;;;;;4923349;29;20501;-65
2021/12/23 01:53:08;;;;;;;22.10;12.38;;;-1.40;96.10;;;;;;4949262;29;20371;-65
2021/12/23 01:55:35;;;;;;;21.15;12.13;;;-1.40;96.10;;;;;;4948551;29;20059;-65
2021/12/23 01:58:02;;;;;;;20.95;12.63;;;-1.40;96.00;;;;;;4892293;29;20047;-65
2021/12/23 02:00:33;;;;;;;20.25;11.82;;;-1.40;95.90;;;;;;4928619;29;20051;-65
2021/12/23 02:03:00;;;;;;;11.63;7.55;;;-1.40;95.80;;;;;;4913797;29;20172;-65
2021/12/23 02:05:26;;;;;;;15.40;8.93;;;-1.40;95.70;;;;;;4911821;29;20487;-65
2021/12/23 02:07:53;;;;;;;19.38;10.68;;;-1.40;95.50;;;;;;4938416;29;20490;-65
2021/12/23 02:10:19;;;;;;;16.65;9.45;;;-1.30;95.30;;;;;;4935921;29;20482;-65
2021/12/23 02:12:47;;;;;;;14.93;9.13;;;-1.40;95.10;;;;;;4948443;29;20035;-65
2021/12/23 02:15:14;;;;;;;15.13;9.10;;;-1.30;95.10;;;;;;4948523;29;20506;-65
2021/12/23 02:17:40;;;;;;;14.35;8.52;;;-1.30;94.90;;;;;;4926222;29;20055;-65
2021/12/23 02:20:09;;;;;;;14.68;7.95;;;-1.20;94.70;;;;;;4948333;29;20051;-65
2021/12/23 02:22:35;;;;;;;15.43;7.72;;;-1.20;94.50;;;;;;4948393;29;20502;-65
2021/12/23 02:25:02;;;;;;;16.50;9.50;;;-1.20;94.50;;;;;;4931462;29;20254;-65
2021/12/23 02:27:28;;;;;;;15.18;9.10;;;-1.20;94.50;;;;;;4946726;28;20113;-65
2021/12/23 02:29:54;;;;;;;11.60;5.65;;;-1.10;94.40;;;;;;4934919;29;20036;-65
2021/12/23 02:32:19;;;;;;;7.18;4.63;;;-1.10;94.40;;;;;;4922131;29;20130;-65
2021/12/23 02:34:45;;;;;;;11.25;6.18;;;-1.10;94.30;;;;;;4930843;29;20114;-65
2021/12/23 02:37:14;;;;;;;13.80;5.95;;;-1.10;94.50;;;;;;4947870;29;20058;-65
2021/12/23 02:39:41;;;;;;;18.95;9.27;;;-1.10;94.50;;;;;;4918423;29;20122;-65
2021/12/23 02:42:07;;;;;;;10.35;6.28;;;-1.00;94.90;;;;;;4938991;29;20363;-65
2021/12/23 02:44:32;;;;;;;10.80;6.85;;;-1.10;94.60;;;;;;4931026;29;20434;-65
2021/12/23 02:46:59;;;;;;;8.57;5.55;;;-1.00;94.60;;;;;;4948315;29;20039;-65
2021/12/23 02:49:26;;;;;;;17.17;9.32;;;-1.00;94.50;;;;;;4918687;29;20128;-65
2021/12/23 02:51:54;;;;;;;18.58;8.95;;;-1.00;94.60;;;;;;4945817;29;20027;-65
2021/12/23 02:54:19;;;;;;;22.17;11.30;;;-1.00;94.40;;;;;;4948573;29;20035;-65
2021/12/23 02:56:46;;;;;;;15.00;9.82;;;-1.00;94.20;;;;;;4930689;29;20561;-65
2021/12/23 02:59:11;;;;;;;12.93;8.18;;;-0.90;94.60;;;;;;4944740;29;20044;-65
2021/12/23 03:01:37;;;;;;;14.77;8.57;;;-0.90;94.60;;;;;;4923752;29;20401;-65
2021/12/23 03:04:04;;;;;;;16.17;9.75;;;-0.90;94.60;;;;;;4917316;29;20061;-65
2021/12/23 03:06:29;;;;;;;17.70;9.50;;;-0.80;94.50;;;;;;4947800;29;20078;-65
2021/12/23 03:08:59;;;;;;;19.23;6.82;;;-0.80;94.30;;;;;;4931894;29;20489;-65
2021/12/23 03:11:28;;;;;;;20.30;10.90;;;-0.80;94.20;;;;;;4928454;29;20042;-65
2021/12/23 03:13:55;;;;;;;22.40;13.23;;;-0.70;94.20;;;;;;4948001;29;20047;-65
2021/12/23 03:16:30;;;;;;;17.13;11.90;;;-0.70;94.40;;;;;;4948299;29;20039;-65
2021/12/23 03:18:56;;;;;;;15.43;10.57;;;-0.70;94.50;;;;;;4947988;29;20053;-64
2021/12/23 03:21:22;;;;;;;17.70;11.25;;;-0.70;94.60;;;;;;4934624;29;20052;-65
2021/12/23 03:23:48;;;;;;;20.65;10.88;;;-0.70;94.80;;;;;;4937300;29;20090;-65
2021/12/23 03:26:14;;;;;;;23.67;13.65;;;-0.70;94.60;;;;;;4930206;29;20051;-65
2021/12/23 03:28:40;;;;;;;22.75;11.82;;;-0.70;94.50;;;;;;4948370;29;20039;-65
2021/12/23 03:31:06;;;;;;;21.08;10.70;;;-0.70;94.10;;;;;;4942834;29;20115;-65
2021/12/23 03:33:32;;;;;;;21.92;11.95;;;-0.60;94.00;;;;;;4936269;29;20056;-65
2021/12/23 03:35:59;;;;;;;17.77;11.15;;;-0.60;94.00;;;;;;4946066;29;20853;-65
2021/12/23 03:38:27;;;;;;;22.08;11.60;;;-0.60;93.60;;;;;;4920267;28;20063;-65
2021/12/23 03:40:52;;;;;;;18.77;11.40;;;-0.50;93.60;;;;;;4951446;29;20047;-65
2021/12/23 03:43:18;;;;;;;17.85;11.02;;;-0.50;93.40;;;;;;4936256;29;20051;-65
2021/12/23 03:45:47;;;;;;;5.80;3.33;;;-0.50;93.30;;;;;;4948282;29;20372;-65
2021/12/23 03:48:14;;;;;;;7.20;4.20;;;-0.50;93.30;;;;;;4951174;29;20181;-65
2021/12/23 03:50:40;;;;;;;17.02;9.40;;;-0.50;93.20;;;;;;4951459;29;20082;-65
2021/12/23 03:53:06;;;;;;;16.08;10.07;;;-0.50;93.40;;;;;;4903831;29;20128;-65
2021/12/23 03:55:32;;;;;;;16.58;9.80;;;-0.50;93.30;;;;;;4944964;29;20048;-65
2021/12/23 03:57:58;;;;;;;19.67;11.45;;;-0.50;93.40;;;;;;4927440;29;20055;-65
2021/12/23 04:00:24;;;;;;;20.67;10.18;;;-0.50;93.50;;;;;;4950918;29;20130;-65
2021/12/23 04:02:51;;;;;;;19.33;10.43;;;-0.50;93.40;;;;;;4919482;29;20453;-65
2021/12/23 04:05:18;;;;;;;24.45;11.68;;;-0.50;93.20;;;;;;4930687;29;20047;-64
2021/12/23 04:07:45;;;;;;;16.10;11.20;;;-0.50;93.10;;;;;;4951405;29;20039;-65
2021/12/23 04:10:14;;;;;;;16.85;9.68;;;-0.50;93.10;;;;;;4939676;29;20089;-65
2021/12/23 04:12:41;;;;;;;17.60;11.02;;;-0.50;93.30;;;;;;4939573;29;20053;-65
2021/12/23 04:15:07;;;;;;;17.23;10.38;;;-0.50;93.50;;;;;;4941945;29;20040;-65
2021/12/23 04:17:33;;;;;;;16.45;9.82;;;-0.50;93.50;;;;;;4934005;29;20477;-65
2021/12/23 04:20:10;;;;;;;17.02;11.57;;;-0.50;93.60;;;;;;4933544;29;20079;-65
2021/12/23 04:22:36;;;;;;;20.02;12.57;;;-0.50;93.70;;;;;;4950749;29;20511;-65
2021/12/23 04:25:02;;;;;;;19.75;11.52;;;-0.50;93.60;;;;;;4922746;29;20054;-65
2021/12/23 04:27:30;;;;;;;23.55;11.73;;;-0.50;93.60;;;;;;4951279;29;20438;-64
2021/12/23 04:29:56;;;;;;;20.90;12.00;;;-0.50;93.70;;;;;;4925050;29;20559;-65
2021/12/23 04:32:21;;;;;;;18.20;11.15;;;-0.50;93.80;;;;;;4948956;29;20199;-65
2021/12/23 04:34:47;;;;;;;16.15;10.00;;;-0.50;93.80;;;;;;4936852;29;20055;-64
2021/12/23 04:37:13;;;;;;;14.93;11.07;;;-0.50;93.90;;;;;;4944923;29;20051;-65
2021/12/23 04:39:40;;;;;;;18.48;11.48;;;-0.50;94.00;;;;;;4949470;29;20051;-65
2021/12/23 04:42:06;;;;;;;20.55;12.48;;;-0.50;93.90;;;;;;4950392;29;20051;-65
2021/12/23 04:44:31;;;;;;;19.88;12.70;;;-0.50;93.70;;;;;;4940497;29;20372;-65
2021/12/23 04:46:58;;;;;;;22.33;12.57;;;-0.50;93.60;;;;;;4917207;29;20116;-64
2021/12/23 04:49:24;;;;;;;16.55;12.07;;;-0.40;93.60;;;;;;4950114;28;20499;-64
2021/12/23 04:51:50;;;;;;;20.70;12.18;;;-0.50;93.50;;;;;;4950317;29;20035;-64
2021/12/23 04:54:15;;;;;;;21.05;12.40;;;-0.50;93.50;;;;;;4950340;29;20043;-65
2021/12/23 04:56:41;;;;;;;27.83;13.30;;;-0.50;93.40;;;;;;4902594;29;20491;-65
2021/12/23 04:59:07;;;;;;;20.77;12.90;;;-0.50;93.40;;;;;;4950062;29;20047;-65
2021/12/23 05:01:33;;;;;;;21.45;12.40;;;-0.50;93.60;;;;;;4926993;29;20087;-65
2021/12/23 05:04:00;;;;;;;20.40;10.00;;;-0.50;93.80;;;;;;4928074;29;20129;-65
2021/12/23 05:06:26;;;;;;;17.30;10.52;;;-0.50;93.90;;;;;;4935146;29;20657;-65
2021/12/23 05:08:52;;;;;;;22.20;11.23;;;-0.50;94.00;;;;;;4948309;29;20043;-65
2021/12/23 05:11:18;;;;;;;17.83;10.10;;;-0.50;94.10;;;;;;4897814;29;20438;-65
2021/12/23 05:13:47;;;;;;;18.70;11.25;;;-0.50;94.00;;;;;;4943473;29;20445;-65
2021/12/23 05:16:14;;;;;;;20.17;10.32;;;-0.50;94.00;;;;;;4928947;29;20055;-65
2021/12/23 05:18:40;;;;;;;18.83;11.63;;;-0.50;94.00;;;;;;4932324;29;20047;-65
2021/12/23 05:21:08;;;;;;;23.05;11.38;;;-0.40;94.10;;;;;;4949823;29;20058;-64
2021/12/23 05:23:34;;;;;;;20.55;10.13;;;-0.40;94.00;;;;;;4949930;29;20071;-65
2021/12/23 05:26:00;;;;;;;21.70;13.68;;;-0.40;93.80;;;;;;4931778;29;20046;-65
2021/12/23 05:28:26;;;;;;;19.55;11.95;;;-0.40;93.60;;;;;;4909418;29;20171;-64
2021/12/23 05:30:52;;;;;;;17.30;8.63;;;-0.40;93.60;;;;;;4948029;29;20047;-65
2021/12/23 05:33:18;;;;;;;25.17;12.40;;;-0.40;93.40;;;;;;4922543;29;20592;-65
2021/12/23 05:35:44;;;;;;;18.08;9.55;;;-0.40;93.00;;;;;;4949654;29;20048;-65
2021/12/23 05:38:09;;;;;;;18.65;12.07;;;-0.30;92.90;;;;;;4923970;29;20043;-65
2021/12/23 05:40:35;;;;;;;19.70;11.50;;;-0.30;93.00;;;;;;4940285;29;20043;-65
2021/12/23 05:43:02;;;;;;;19.10;11.38;;;-0.30;93.00;;;;;;4931959;29;20577;-65
2021/12/23 05:45:28;;;;;;;21.63;12.57;;;-0.30;93.10;;;;;;4931869;29;20102;-65
2021/12/23 05:47:55;;;;;;;19.70;11.35;;;-0.30;93.10;;;;;;4931775;29;20269;-64
2021/12/23 05:50:23;;;;;;;22.25;11.38;;;-0.30;92.90;;;;;;4949399;29;20352;-64
2021/12/23 05:52:51;;;;;;;17.33;10.88;;;-0.30;92.90;;;;;;4916139;29;21022;-65
2021/12/23 05:55:17;;;;;;;18.73;12.32;;;-0.30;92.90;;;;;;4911604;29;20561;-65
2021/12/23 05:57:43;;;;;;;18.73;9.45;;;-0.30;92.80;;;;;;4932606;29;20107;-64
2021/12/23 06:00:25;;;;;;;16.85;10.25;;;-0.30;93.10;;;;;;4942436;29;20047;-65
2021/12/23 06:02:51;;;;;;;23.17;11.70;;;-0.20;92.80;;;;;;4922928;29;20039;-65
2021/12/23 06:05:18;;;;;;;19.83;9.38;;;-0.30;92.60;;;;;;4931704;29;20036;-65
2021/12/23 06:07:44;;;;;;;21.08;12.88;;;-0.30;92.70;;;;;;4929174;29;20479;-65
2021/12/23 06:10:10;;;;;;;10.13;6.10;;;-0.20;92.90;;;;;;4927030;29;20519;-65
2021/12/23 06:12:36;;;;;;;17.10;10.90;;;-0.20;92.80;;;;;;4929199;29;20458;-65
2021/12/23 06:15:03;;;;;;;16.30;9.35;;;-0.20;92.90;;;;;;4928794;29;20035;-65
2021/12/23 06:17:30;;;;;;;18.02;11.40;;;-0.20;93.10;;;;;;4929057;29;20079;-65
2021/12/23 06:19:56;;;;;;;17.83;9.95;;;-0.20;92.70;;;;;;4902887;29;20054;-65
2021/12/23 06:22:21;;;;;;;11.48;7.22;;;-0.20;92.90;;;;;;4934459;29;20083;-65
2021/12/23 06:24:51;;;;;;;18.38;11.48;;;-0.20;92.60;;;;;;4927392;29;20039;-64
2021/12/23 06:27:18;;;;;;;16.38;10.90;;;-0.20;92.50;;;;;;4929046;29;20048;-65
2021/12/23 06:29:44;;;;;;;22.58;10.50;;;-0.20;92.40;;;;;;4926232;29;20111;-65
2021/12/23 06:32:10;;;;;;;16.83;9.30;;;-0.20;92.40;;;;;;4900691;29;20122;-65
2021/12/23 06:34:36;;;;;;;12.05;5.78;;;-0.20;92.60;;;;;;4928711;29;20059;-65
2021/12/23 06:37:04;;;;;;;20.63;9.95;;;-0.20;92.60;;;;;;4929265;29;20052;-65
2021/12/23 06:39:31;;;;;;;15.95;8.65;;;-0.20;92.80;;;;;;4927233;29;20137;-65
2021/12/23 06:41:57;;;;;;;20.45;8.63;;;-0.20;92.80;;;;;;4928567;29;20072;-65
2021/12/23 06:44:23;;;;;;;18.08;10.63;;;-0.20;92.60;;;;;;4929596;29;20557;-65
2021/12/23 06:46:49;;;;;;;21.02;10.15;;;-0.20;92.90;;;;;;4929172;29;20463;-65
2021/12/23 06:49:16;;;;;;;20.55;10.98;;;-0.20;93.10;;;;;;4928962;29;20087;-65
2021/12/23 06:51:42;;;;;;;21.05;11.98;;;-0.20;93.10;;;;;;4928404;29;20051;-65
2021/12/23 06:54:09;;;;;;;18.63;11.88;;;-0.20;92.60;;;;;;4928888;29;20051;-65
2021/12/23 06:56:40;;;;;;;15.65;8.05;;;-0.20;92.50;;;;;;4928573;29;20116;-65
2021/12/23 06:59:06;;;;;;;14.93;10.88;;;-0.20;92.40;;;;;;4928901;29;20193;-65
2021/12/23 07:01:32;;;;;;;18.73;11.82;;;-0.20;92.50;;;;;;4928135;29;20050;-65
2021/12/23 07:06:25;;;;;;;20.38;12.13;;;-0.20;92.50;;;;;;4928501;29;20047;-65
2021/12/23 07:08:54;;;;;;;21.38;11.82;;;-0.20;92.60;;;;;;4928798;29;20043;-65
2021/12/23 07:11:20;;;;;;;22.45;11.88;;;-0.20;92.70;;;;;;4922771;29;20047;-65
2021/12/23 07:13:45;;;;;;;19.50;10.10;;;-0.20;92.80;;;;;;4934413;28;20047;-65
2021/12/23 07:16:12;;;;;;;4.88;3.75;;;-0.30;92.90;;;;;;4948279;29;20050;-65
2021/12/23 07:18:39;;;;;;;20.45;8.85;;;-0.30;92.90;;;;;;4938316;29;20055;-65
2021/12/23 07:21:05;;;;;;;16.20;8.43;;;-0.30;93.00;;;;;;4918389;29;20118;-65
2021/12/23 07:23:32;;;;;;;14.75;9.48;;;-0.20;93.30;;;;;;4911174;29;20087;-65
2021/12/23 07:25:57;;;;;;;12.88;7.40;;;-0.20;93.30;;;;;;4928379;29;20055;-65
2021/12/23 07:28:23;;;;;;;17.73;11.77;;;-0.20;92.90;;;;;;4869540;29;20044;-65
2021/12/23 07:30:51;;;;;;;23.55;12.65;;;-0.10;92.70;;;;;;4908926;29;20487;-65
2021/12/23 07:33:17;;;;;;;21.45;12.88;;;-0.10;92.60;;;;;;4903540;29;20075;-65
2021/12/23 07:35:43;;;;;;;22.00;12.57;;;-0.10;92.50;;;;;;4897523;29;20478;-65
2021/12/23 07:38:09;;;;;;;18.80;8.60;;;-0.10;92.20;;;;;;4911578;29;20055;-65
2021/12/23 07:40:34;;;;;;;26.58;14.68;;;0.00;92.40;;;;;;4928663;29;20126;-65
2021/12/23 07:43:20;;;;;;;25.95;14.20;;;-0.10;92.30;;;;;;4927852;29;20395;-65
2021/12/23 07:45:47;;;;;;;23.60;14.25;;;0.00;92.30;;;;;;4911541;29;20407;-65
2021/12/23 07:48:13;;;;;;;25.02;14.48;;;0.00;92.30;;;;;;4925491;29;20075;-65
2021/12/23 07:50:41;;;;;;;23.98;10.93;;;0.00;92.50;;;;;;4928141;29;20052;-65
2021/12/23 07:53:07;;;;;;;20.48;11.07;;;0.10;92.60;;;;;;4927763;29;20066;-65
2021/12/23 07:55:32;;;;;;;19.30;12.02;;;0.10;92.60;;;;;;4885422;29;20044;-65
2021/12/23 07:57:58;;;;;;;16.80;9.70;;;0.10;92.60;;;;;;4920162;29;20074;-65
2021/12/23 08:00:28;;;;;;;21.23;12.98;;;0.20;92.50;;;;;;4910201;29;20110;-65
2021/12/23 08:02:57;;;;;;;16.33;9.15;;;0.10;92.40;;;;;;4926233;29;20048;-65
2021/12/23 08:05:23;;;;;;;30.05;15.55;;;0.20;92.50;;;;;;4927045;29;20115;-65
2021/12/23 08:07:49;;;;;;;16.88;10.27;;;0.20;92.40;;;;;;4915351;29;20636;-65
2021/12/23 08:10:14;;;;;;;25.75;14.55;;;0.20;92.10;;;;;;4927490;29;20413;-65
2021/12/23 08:12:40;;;;;;;13.68;7.53;;;0.30;92.00;;;;;;4928224;29;20079;-65
2021/12/23 08:15:07;;;;;;;29.33;16.63;;;0.30;91.80;;;;;;4902488;29;20530;-65
2021/12/23 08:17:33;;;;;;;28.20;16.15;;;0.30;91.60;;;;;;4901462;29;20044;-65
2021/12/23 08:19:58;;;;;;;30.92;15.20;;;0.30;91.30;;;;;;4908752;29;20130;-65
2021/12/23 08:22:25;;;;;;;22.20;13.93;;;0.40;91.00;;;;;;4891667;29;20051;-65
2021/12/23 08:24:51;;;;;;;30.55;18.02;;;0.40;91.00;;;;;;4899309;29;20047;-65
2021/12/23 08:27:17;;;;;;;24.65;13.57;;;0.50;90.50;;;;;;4895431;29;20048;-65
2021/12/23 08:29:42;;;;;;;29.83;15.75;;;0.50;90.50;;;;;;4911906;29;20096;-65
2021/12/23 08:32:08;;;;;;;22.75;14.73;;;0.50;90.40;;;;;;4930211;29;20050;-65
2021/12/23 08:34:36;;;;;;;29.42;18.00;;;0.50;90.00;;;;;;4930796;29;20458;-65
2021/12/23 08:37:05;;;;;;;20.88;12.68;;;0.50;90.30;;;;;;4913614;29;20053;-65
2021/12/23 08:39:30;;;;;;;30.10;16.88;;;0.50;90.30;;;;;;4913475;29;20102;-65
2021/12/23 08:41:56;;;;;;;18.05;10.85;;;0.50;90.50;;;;;;4931004;29;20534;-65
2021/12/23 08:44:22;;;;;;;18.92;11.45;;;0.50;90.50;;;;;;4930081;29;20039;-65
2021/12/23 08:46:47;;;;;;;23.85;14.02;;;0.50;90.80;;;;;;4911339;29;20052;-65
2021/12/23 08:49:13;;;;;;;24.23;12.80;;;0.50;90.70;;;;;;4931203;29;20044;-65
2021/12/23 08:51:41;;;;;;;25.63;16.63;;;0.50;90.80;;;;;;4925381;29;20047;-65
2021/12/23 08:54:07;;;;;;;31.52;11.77;;;0.50;90.90;;;;;;4906926;29;20043;-65
2021/12/23 08:56:33;;;;;;;32.05;17.95;;;0.40;90.50;;;;;;4902857;29;20929;-65
2021/12/23 08:58:58;;;;;;;24.25;15.00;;;0.40;90.50;;;;;;4906361;29;20039;-65
2021/12/23 09:01:25;;;;;;;13.07;6.88;;;0.40;90.50;;;;;;4930638;29;20071;-65
2021/12/23 09:03:50;;;;;;;29.50;16.35;;;0.40;90.50;;;;;;4930233;29;20506;-66
2021/12/23 09:06:16;;;;;;;19.42;12.45;;;0.40;90.50;;;;;;4930710;29;20043;-65
2021/12/23 09:08:42;;;;;;;21.38;13.82;;;0.40;90.50;;;;;;4929669;29;20550;-65
2021/12/23 09:11:08;;;;;;;31.67;14.80;;;0.40;90.50;;;;;;4889152;29;20044;-65
2021/12/23 09:13:34;;;;;;;23.17;14.45;;;0.40;90.50;;;;;;4930227;29;20044;-65
2021/12/23 09:16:00;;;;;;;29.88;18.33;;;0.40;90.40;;;;;;4910603;29;20591;-65
2021/12/23 09:18:26;;;;;;;16.27;8.80;;;0.40;90.50;;;;;;4928114;29;20048;-65
2021/12/23 09:20:55;;;;;;;22.30;13.45;;;0.40;90.50;;;;;;4927685;29;20502;-65
2021/12/23 09:23:22;;;;;;;26.42;14.07;;;0.40;90.50;;;;;;4919617;29;20081;-65
2021/12/23 09:25:49;;;;;;;24.55;15.35;;;0.40;91.00;;;;;;4927127;29;20048;-65
2021/12/23 09:33:26;;;;;;;25.02;12.15;;;0.50;91.30;;;;;;4928500;29;20051;-65
2021/12/23 09:35:53;;;;;;;31.15;16.67;;;0.40;91.10;;;;;;4921194;29;20525;-65
2021/12/23 09:38:26;;;;;;;32.00;16.83;;;0.40;91.00;;;;;;4924782;29;20530;-65
2021/12/23 09:40:53;;;;;;;25.90;17.17;;;0.40;91.10;;;;;;4909868;29;20051;-65
2021/12/23 09:43:24;;;;;;;32.67;16.25;;;0.40;91.20;;;;;;4920374;29;20066;-65
2021/12/23 09:45:53;;;;;;;30.40;13.52;;;0.40;91.40;;;;;;4923321;29;20079;-65
2021/12/23 09:48:28;;;;;;;22.15;12.48;;;0.40;91.40;;;;;;4924411;29;20040;-65
2021/12/23 09:50:57;;;;;;;24.00;14.85;;;0.40;91.50;;;;;;4921211;29;20083;-65
2021/12/23 09:53:23;;;;;;;28.65;15.85;;;0.40;91.50;;;;;;4926083;29;20043;-65
2021/12/23 09:55:50;;;;;;;28.98;17.13;;;0.40;91.40;;;;;;4909058;29;20487;-65
2021/12/23 09:58:16;;;;;;;21.73;12.23;;;0.40;91.30;;;;;;4884993;29;20138;-65
2021/12/23 10:00:45;;;;;;;21.50;13.43;;;0.40;91.40;;;;;;4901514;29;20184;-65
2021/12/23 10:03:15;;;;;;;31.83;16.63;;;0.40;91.10;;;;;;4910524;29;20126;-65
2021/12/23 10:05:41;;;;;;;17.20;10.70;;;0.50;91.30;;;;;;4927586;29;20066;-65
2021/12/23 10:08:10;;;;;;;30.42;17.63;;;0.50;91.30;;;;;;4892767;29;20801;-65
2021/12/23 10:10:42;;;;;;;19.25;12.60;;;0.50;91.50;;;;;;4925851;29;20055;-65
2021/12/23 10:38:16;;;;;;;32.47;20.15;;;0.50;93.10;;;;;;4927768;29;20051;-64
2021/12/23 10:40:45;;;;;;;31.92;17.25;;;0.40;93.60;;;;;;4909943;29;20059;-65
2021/12/23 10:43:29;;;;;;;38.97;21.67;;;0.40;93.90;;;;;;4923520;29;20072;-64
2021/12/23 10:46:01;;;;;;;34.55;19.10;;;0.40;94.20;;;;;;4926423;29;20056;-65
2021/12/23 10:48:31;;;;;;;31.00;18.95;;;0.40;94.40;;;;;;4909058;29;20205;-65
2021/12/23 10:51:04;;;;;;;40.35;22.20;;;0.40;94.50;;;;;;4926839;29;20743;-65
2021/12/23 10:59:23;;;;;;;34.67;17.80;;;0.50;95.20;;;;;;4926812;29;20122;-64
2021/12/23 11:02:12;;;;;;;35.70;19.60;;;0.40;95.40;;;;;;4926519;29;20177;-64
2021/12/23 11:05:12;;;;;;;37.03;20.05;;;0.40;95.60;;;;;;4921827;29;20062;-64
2021/12/23 11:07:54;;;;;;;39.10;22.65;;;0.40;95.70;;;;;;4927380;29;20052;-64
2021/12/23 11:38:38;;;;;;;44.15;24.33;;;0.50;97.00;;;;;;4921002;29;20043;-64
2021/12/23 11:41:18;;;;;;;43.60;24.08;;;0.50;97.00;;;;;;4925888;29;20162;-64
2021/12/23 11:43:49;;;;;;;42.40;24.02;;;0.50;97.10;;;;;;4908883;29;20183;-64
2021/12/23 11:46:23;;;;;;;49.85;26.40;;;0.50;97.20;;;;;;4914859;29;20405;-64
2021/12/23 11:48:53;;;;;;;41.35;20.83;;;0.50;97.20;;;;;;4923961;29;20134;-64
2021/12/23 11:51:33;;;;;;;39.13;20.63;;;0.50;97.40;;;;;;4926989;29;20047;-64
2021/12/23 11:54:02;;;;;;;34.72;17.17;;;0.60;97.40;;;;;;4921050;29;20106;-64
2021/12/23 11:56:30;;;;;;;31.73;17.52;;;0.60;97.50;;;;;;4920888;29;20526;-64
2021/12/23 11:58:58;;;;;;;44.47;20.77;;;0.60;97.60;;;;;;4925932;29;20055;-64
2021/12/23 12:01:28;;;;;;;49.65;25.77;;;0.60;97.70;;;;;;4913261;29;20507;-64
2021/12/23 12:03:59;;;;;;;40.00;20.65;;;0.60;97.70;;;;;;4919625;29;20048;-65
2021/12/23 12:06:43;;;;;;;49.80;26.02;;;0.60;97.80;;;;;;4928182;29;20529;-65
2021/12/23 12:09:13;;;;;;;51.35;25.02;;;0.60;97.90;;;;;;4904773;29;20126;-65
2021/12/23 12:11:41;;;;;;;45.58;23.70;;;0.60;97.90;;;;;;4933095;29;20758;-65
2021/12/23 12:14:44;;;;;;;49.53;26.23;;;0.60;97.90;;;;;;4935177;29;20130;-65
2021/12/23 12:17:24;;;;;;;49.40;25.73;;;0.60;97.90;;;;;;4854177;29;20149;-65
2021/12/23 12:20:34;;;;;;;46.33;23.33;;;0.60;98.00;;;;;;4918845;29;20051;-65
2021/12/23 12:23:07;;;;;;;46.80;22.55;;;0.60;98.00;;;;;;4923624;29;20044;-65
2021/12/23 12:25:40;;;;;;;47.22;25.67;;;0.60;98.00;;;;;;4930967;29;20098;-65
2021/12/23 12:28:07;;;;;;;53.63;26.88;;;0.60;98.00;;;;;;4909630;29;20058;-65
2021/12/23 12:30:47;;;;;;;35.83;20.75;;;0.60;98.10;;;;;;4907905;29;20465;-65
2021/12/23 12:33:34;;;;;;;47.03;24.63;;;0.60;98.00;;;;;;4930721;29;20043;-65
2021/12/23 12:36:05;;;;;;;36.35;20.35;;;0.60;98.10;;;;;;4921098;29;20059;-66
2021/12/23 12:38:37;;;;;;;45.97;25.60;;;0.70;98.10;;;;;;4930696;29;20052;-65
2021/12/23 12:41:17;;;;;;;53.90;26.73;;;0.60;98.00;;;;;;4930494;29;20055;-65
2021/12/23 12:43:47;;;;;;;41.08;21.67;;;0.70;98.10;;;;;;4907984;29;20040;-66
2021/12/23 12:46:36;;;;;;;40.88;23.20;;;0.70;98.10;;;;;;4922701;29;20055;-65
2021/12/23 12:49:09;;;;;;;44.28;23.77;;;0.60;98.10;;;;;;4926743;29;20055;-66
2021/12/23 12:51:38;;;;;;;39.33;23.25;;;0.70;98.20;;;;;;4925457;29;20491;-65
2021/12/23 12:54:08;;;;;;;41.35;24.27;;;0.70;98.20;;;;;;4926620;29;20498;-65
2021/12/23 12:56:42;;;;;;;42.47;23.63;;;0.70;98.20;;;;;;4928820;29;20055;-66
2021/12/23 12:59:11;;;;;;;42.53;23.35;;;0.70;98.30;;;;;;4926714;29;20083;-66
2021/12/23 13:01:42;;;;;;;38.10;23.27;;;0.70;98.20;;;;;;4929649;29;20052;-66
2021/12/23 13:04:33;;;;;;;53.72;26.02;;;0.70;98.20;;;;;;4908065;29;20107;-66
2021/12/23 13:07:14;;;;;;;49.33;24.33;;;0.70;98.30;;;;;;4926023;29;20039;-65
2021/12/23 13:10:00;;;;;;;47.83;24.63;;;0.70;98.30;;;;;;4928429;29;20094;-65
2021/12/23 13:12:57;;;;;;;63.10;32.10;;;0.70;98.30;;;;;;4927196;29;20151;-66
2021/12/23 13:15:35;;;;;;;50.40;26.23;;;0.70;98.40;;;;;;4922795;29;20059;-66
2021/12/23 13:18:02;;;;;;;44.47;23.55;;;0.70;98.40;;;;;;4928293;29;20046;-66
2021/12/23 13:20:41;;;;;;;48.92;26.20;;;0.70;98.40;;;;;;4929150;29;20403;-66
2021/12/23 13:23:14;;;;;;;47.33;25.80;;;0.70;98.50;;;;;;4926225;29;20051;-66
2021/12/23 13:25:59;;;;;;;44.90;25.45;;;0.70;98.50;;;;;;4926009;29;20074;-66
2021/12/23 13:28:38;;;;;;;58.20;25.15;;;0.70;98.60;;;;;;4923890;29;20171;-66
2021/12/23 13:31:23;;;;;;;46.63;26.27;;;0.70;98.60;;;;;;4915290;29;20051;-66
2021/12/23 13:33:56;;;;;;;46.53;24.73;;;0.70;98.70;;;;;;4928631;29;20735;-66
2021/12/23 13:36:29;;;;;;;49.35;26.05;;;0.60;98.70;;;;;;4929468;29;20389;-66
2021/12/23 13:39:14;;;;;;;50.50;24.50;;;0.70;98.80;;;;;;4927670;29;20075;-65
2021/12/23 13:41:46;;;;;;;45.50;25.10;;;0.70;98.80;;;;;;4912216;29;20398;-65
2021/12/23 13:44:15;;;;;;;53.10;27.48;;;0.70;98.80;;;;;;4926717;29;20039;-65
2021/12/23 13:46:54;;;;;;;45.30;23.88;;;0.70;98.90;;;;;;4928787;29;20047;-66
2021/12/23 13:49:37;;;;;;;48.50;25.25;;;0.70;98.90;;;;;;4928927;29;20467;-66
2021/12/23 13:52:12;;;;;;;39.92;22.77;;;0.70;98.90;;;;;;4925622;29;20078;-66
2021/12/23 13:54:40;;;;;;;39.85;20.85;;;0.70;99.00;;;;;;4926551;29;20543;-65